Time;durP1;ratioP1;P1;durP2;ratioP2;P2;SDS_P1;SDS_P2;PMS_P1;PMS_P2;Temp;Humidity;BMP_temperature;BMP_pressure;BME280_temperature;BME280_humidity;BME280_pressure;Samples;Min_cycle;Max_cycle;Signal;HPM_P1;HPM_P2
2021/03/10 00:00:10;;;;;;;7.82;2.80;;;16.40;46.40;;;;;;1050953;28;20331;-75
2021/03/10 00:00:41;;;;;;;9.68;3.10;;;16.30;46.40;;;;;;1045104;28;20020;-76
2021/03/10 00:01:13;;;;;;;11.60;3.00;;;16.30;46.80;;;;;;1041345;28;20017;-76
2021/03/10 00:01:44;;;;;;;11.32;3.22;;;16.30;47.00;;;;;;1043395;28;20100;-76
2021/03/10 00:02:16;;;;;;;8.43;2.70;;;16.30;46.60;;;;;;1043214;28;20051;-77
2021/03/10 00:02:47;;;;;;;9.07;2.90;;;16.30;46.70;;;;;;1044547;28;20079;-79
2021/03/10 00:03:18;;;;;;;9.20;2.83;;;16.30;46.80;;;;;;1043223;28;20021;-78
2021/03/10 00:03:50;;;;;;;10.70;2.95;;;16.30;46.80;;;;;;1042877;28;20017;-77
2021/03/10 00:04:21;;;;;;;10.63;3.05;;;16.50;46.70;;;;;;1044868;28;20032;-77
2021/03/10 00:04:53;;;;;;;10.98;3.20;;;16.60;46.10;;;;;;1044948;28;20021;-76
2021/03/10 00:05:24;;;;;;;8.95;2.70;;;16.50;46.20;;;;;;1046089;28;20060;-77
2021/03/10 00:05:55;;;;;;;10.75;3.00;;;16.50;46.40;;;;;;1044387;28;20029;-75
2021/03/10 00:06:27;;;;;;;7.78;2.70;;;16.40;46.30;;;;;;1038388;28;20052;-75
2021/03/10 00:06:59;;;;;;;10.25;2.90;;;16.40;46.80;;;;;;1041760;28;20034;-76
2021/03/10 00:07:30;;;;;;;8.27;2.80;;;16.50;45.40;;;;;;1041536;28;20029;-76
2021/03/10 00:08:01;;;;;;;8.88;2.80;;;16.60;45.00;;;;;;1045791;28;20043;-75
2021/03/10 00:08:33;;;;;;;7.13;2.72;;;16.50;44.90;;;;;;1047131;28;20024;-75
2021/03/10 00:09:05;;;;;;;10.18;2.97;;;16.50;45.20;;;;;;1045018;28;20020;-75
2021/03/10 00:09:36;;;;;;;8.20;2.80;;;16.40;45.20;;;;;;1045411;28;20112;-76
2021/03/10 00:10:10;;;;;;;9.65;2.88;;;16.30;45.20;;;;;;1046734;28;20020;-75
2021/03/10 00:10:41;;;;;;;10.38;2.90;;;16.30;45.40;;;;;;1049266;28;20063;-76
2021/03/10 00:11:13;;;;;;;12.15;3.00;;;16.30;45.50;;;;;;1052779;28;20026;-77
2021/03/10 00:11:44;;;;;;;8.80;2.92;;;16.20;45.70;;;;;;1046006;28;20045;-76
2021/03/10 00:12:15;;;;;;;8.50;3.00;;;16.20;46.10;;;;;;1045023;28;20043;-77
2021/03/10 00:12:47;;;;;;;7.85;2.80;;;16.20;46.10;;;;;;1046791;28;20040;-76
2021/03/10 00:13:18;;;;;;;8.18;2.70;;;16.20;46.10;;;;;;1046930;28;20075;-76
2021/03/10 00:13:50;;;;;;;8.40;2.53;;;16.20;46.20;;;;;;1054245;28;20076;-76
2021/03/10 00:14:21;;;;;;;9.38;3.10;;;16.20;46.40;;;;;;1048595;28;20483;-76
2021/03/10 00:14:53;;;;;;;9.60;2.92;;;16.10;46.60;;;;;;1045946;28;20021;-77
2021/03/10 00:15:24;;;;;;;8.52;2.67;;;16.10;46.70;;;;;;1047422;28;20112;-76
2021/03/10 00:15:55;;;;;;;11.02;3.03;;;16.10;46.90;;;;;;1049160;28;20082;-76
2021/03/10 00:16:27;;;;;;;10.77;3.00;;;16.10;47.00;;;;;;1045972;28;20469;-76
2021/03/10 00:16:59;;;;;;;7.05;2.58;;;16.10;47.10;;;;;;1048753;28;20021;-76
2021/03/10 00:17:31;;;;;;;12.55;2.72;;;16.10;46.90;;;;;;1043675;28;20029;-77
2021/03/10 00:18:03;;;;;;;11.85;3.20;;;16.10;46.80;;;;;;1045440;28;20407;-77
2021/03/10 00:18:34;;;;;;;11.50;2.90;;;16.10;46.40;;;;;;1043129;28;20082;-76
2021/03/10 00:19:06;;;;;;;6.43;2.42;;;16.10;46.70;;;;;;1046848;28;20032;-76
2021/03/10 00:19:37;;;;;;;7.25;2.95;;;16.10;46.40;;;;;;1044704;28;20028;-76
2021/03/10 00:20:11;;;;;;;9.07;2.90;;;16.10;46.20;;;;;;1044964;28;20021;-75
2021/03/10 00:20:42;;;;;;;8.38;2.78;;;16.20;46.30;;;;;;1044590;28;20017;-76
2021/03/10 00:21:14;;;;;;;7.70;2.75;;;16.20;46.40;;;;;;1046081;28;20071;-77
2021/03/10 00:21:45;;;;;;;9.43;2.65;;;16.20;46.20;;;;;;1046445;28;20028;-76
2021/03/10 00:22:17;;;;;;;10.13;2.72;;;16.20;46.30;;;;;;1037934;28;20213;-77
2021/03/10 00:22:48;;;;;;;7.68;2.63;;;16.20;46.20;;;;;;1041894;28;20027;-77
2021/03/10 00:23:20;;;;;;;9.75;2.92;;;16.20;46.20;;;;;;1041493;28;20021;-76
2021/03/10 00:23:51;;;;;;;9.00;3.05;;;16.20;46.40;;;;;;1046491;28;20443;-76
2021/03/10 00:24:22;;;;;;;9.93;3.10;;;16.20;46.10;;;;;;1045915;28;20115;-76
2021/03/10 00:24:54;;;;;;;8.05;2.83;;;16.30;45.70;;;;;;1044394;28;20032;-76
2021/03/10 00:25:25;;;;;;;8.60;2.83;;;16.30;45.60;;;;;;1048697;28;20020;-76
2021/03/10 00:25:57;;;;;;;10.90;2.85;;;16.30;45.80;;;;;;1045536;28;20067;-76
2021/03/10 00:26:28;;;;;;;11.50;3.10;;;16.30;45.80;;;;;;1047649;28;20123;-76
2021/03/10 00:26:59;;;;;;;8.27;2.55;;;16.30;45.40;;;;;;1044117;28;20040;-76
2021/03/10 00:27:31;;;;;;;10.95;3.20;;;16.30;45.40;;;;;;1046287;28;20478;-76
2021/03/10 00:28:02;;;;;;;12.95;3.13;;;16.20;45.30;;;;;;1045359;28;20127;-76
2021/03/10 00:28:34;;;;;;;9.70;2.90;;;16.10;45.60;;;;;;1040196;28;20025;-76
2021/03/10 00:29:05;;;;;;;8.45;2.85;;;16.10;45.70;;;;;;1041512;28;20022;-78
2021/03/10 00:29:37;;;;;;;9.15;2.80;;;16.10;45.70;;;;;;1044565;28;20043;-78
2021/03/10 00:30:10;;;;;;;8.35;2.88;;;16.10;45.70;;;;;;1044762;28;20060;-78
2021/03/10 00:30:41;;;;;;;9.13;2.90;;;16.00;46.10;;;;;;1040451;28;20449;-77
2021/03/10 00:31:13;;;;;;;8.00;2.88;;;16.00;46.50;;;;;;1041116;28;20515;-77
2021/03/10 00:31:44;;;;;;;9.25;2.90;;;16.00;46.50;;;;;;1040474;28;20029;-77
2021/03/10 00:32:16;;;;;;;10.70;2.95;;;16.10;46.50;;;;;;1037141;28;20052;-76
2021/03/10 00:32:47;;;;;;;8.57;2.78;;;16.00;46.60;;;;;;1047753;28;20807;-77
2021/03/10 00:33:18;;;;;;;5.95;2.50;;;16.00;46.90;;;;;;1040725;28;20089;-77
2021/03/10 00:33:50;;;;;;;12.32;3.30;;;15.90;47.00;;;;;;1041772;28;20379;-78
2021/03/10 00:34:21;;;;;;;8.52;2.85;;;15.90;47.10;;;;;;1041972;28;20067;-78
2021/03/10 00:34:54;;;;;;;10.32;2.70;;;15.80;47.10;;;;;;1039707;28;20040;-76
2021/03/10 00:35:25;;;;;;;10.85;3.10;;;15.90;47.20;;;;;;1041025;28;20467;-77
2021/03/10 00:35:56;;;;;;;7.40;2.70;;;15.80;47.40;;;;;;1044953;28;20021;-76
2021/03/10 00:36:28;;;;;;;8.70;2.67;;;15.70;47.60;;;;;;1044482;28;20406;-76
2021/03/10 00:36:59;;;;;;;10.27;2.90;;;15.70;47.70;;;;;;1044777;28;20047;-77
2021/03/10 00:37:31;;;;;;;8.13;2.72;;;15.60;47.70;;;;;;1044808;28;20107;-76
2021/03/10 00:38:02;;;;;;;7.80;2.90;;;15.60;47.80;;;;;;1045284;28;20024;-77
2021/03/10 00:38:34;;;;;;;9.98;3.20;;;15.60;47.80;;;;;;1048473;28;20029;-77
2021/03/10 00:39:05;;;;;;;10.48;3.10;;;15.60;47.60;;;;;;1044247;28;20032;-77
2021/03/10 00:39:37;;;;;;;8.55;2.80;;;15.60;47.80;;;;;;1040651;28;20112;-77
2021/03/10 00:40:08;;;;;;;9.82;2.80;;;15.60;47.70;;;;;;1046125;28;20107;-78
2021/03/10 00:40:40;;;;;;;8.90;2.60;;;15.60;47.70;;;;;;1045172;28;20439;-78
2021/03/10 00:41:12;;;;;;;10.10;3.13;;;15.70;47.10;;;;;;1045873;28;20017;-77
2021/03/10 00:41:43;;;;;;;9.10;2.90;;;15.70;47.00;;;;;;1043761;28;20521;-77
2021/03/10 00:42:16;;;;;;;9.05;2.95;;;15.70;47.00;;;;;;1041415;28;20455;-76
2021/03/10 00:42:53;;;;;;;10.00;2.90;;;15.70;46.80;;;;;;1043214;28;20024;-76
2021/03/10 00:43:24;;;;;;;10.60;2.83;;;15.80;46.60;;;;;;1044922;28;20078;-75
2021/03/10 00:43:56;;;;;;;12.27;3.17;;;15.70;46.70;;;;;;1044883;28;20024;-75
2021/03/10 00:44:27;;;;;;;7.13;2.72;;;15.80;46.90;;;;;;1047474;28;20031;-76
2021/03/10 00:44:59;;;;;;;10.38;2.90;;;15.70;47.40;;;;;;1046902;28;20437;-76
2021/03/10 00:45:30;;;;;;;7.80;2.80;;;15.70;46.90;;;;;;1045514;28;20096;-76
2021/03/10 00:46:02;;;;;;;11.45;3.30;;;15.60;47.40;;;;;;1045312;28;20079;-75
2021/03/10 00:46:33;;;;;;;10.25;2.75;;;15.50;47.70;;;;;;1040620;28;20036;-75
2021/03/10 00:47:05;;;;;;;8.00;2.88;;;15.40;48.10;;;;;;1040831;28;20030;-75
2021/03/10 00:47:36;;;;;;;8.32;2.70;;;15.30;48.40;;;;;;1041141;28;20026;-76
2021/03/10 00:48:08;;;;;;;8.00;2.60;;;15.30;48.60;;;;;;1043229;28;20840;-75
2021/03/10 00:48:39;;;;;;;8.50;2.70;;;15.30;48.80;;;;;;1048132;28;20056;-75
2021/03/10 00:49:11;;;;;;;11.20;3.05;;;15.20;49.00;;;;;;1046031;28;20096;-75
2021/03/10 00:49:43;;;;;;;8.48;2.70;;;15.20;49.20;;;;;;1047913;28;20492;-75
2021/03/10 00:50:21;;;;;;;10.88;2.60;;;15.10;49.40;;;;;;1040758;28;20026;-76
2021/03/10 00:50:52;;;;;;;9.73;2.90;;;15.10;49.60;;;;;;1040770;28;20422;-76
2021/03/10 00:51:23;;;;;;;7.90;3.08;;;15.10;49.70;;;;;;1042297;28;20036;-75
2021/03/10 00:51:55;;;;;;;8.18;2.63;;;15.00;49.60;;;;;;1043224;28;20474;-76
2021/03/10 00:52:26;;;;;;;11.95;3.00;;;15.10;49.60;;;;;;1044694;28;20348;-75
2021/03/10 00:52:58;;;;;;;10.93;2.88;;;15.10;49.60;;;;;;1044744;28;20025;-76
2021/03/10 00:53:29;;;;;;;10.68;3.00;;;15.10;49.70;;;;;;1040707;28;20471;-76
2021/03/10 00:54:00;;;;;;;9.73;2.90;;;15.10;50.00;;;;;;1042462;28;20071;-76
2021/03/10 00:54:32;;;;;;;11.15;3.17;;;15.10;50.20;;;;;;1036903;28;20033;-76
2021/03/10 00:55:04;;;;;;;14.50;3.40;;;15.10;50.60;;;;;;1042453;28;20051;-76
2021/03/10 00:55:36;;;;;;;8.57;2.60;;;15.10;50.10;;;;;;1048865;28;20023;-76
2021/03/10 00:56:07;;;;;;;7.68;2.75;;;15.10;50.20;;;;;;1045323;28;20100;-76
2021/03/10 00:56:38;;;;;;;7.97;2.80;;;15.10;50.40;;;;;;1040724;28;20089;-76
2021/03/10 00:57:10;;;;;;;6.55;2.45;;;15.20;50.50;;;;;;1044220;28;20013;-77
2021/03/10 00:57:41;;;;;;;10.07;3.00;;;15.30;50.10;;;;;;1045190;28;20047;-77
2021/03/10 00:58:13;;;;;;;11.27;3.00;;;15.60;49.50;;;;;;1052985;28;20023;-76
2021/03/10 00:58:44;;;;;;;12.27;3.10;;;15.60;48.80;;;;;;1051223;28;20013;-77
2021/03/10 00:59:16;;;;;;;7.68;2.85;;;15.70;47.80;;;;;;1048436;28;20569;-76
2021/03/10 00:59:47;;;;;;;8.57;3.10;;;15.60;46.70;;;;;;1045104;28;20411;-76
2021/03/10 01:00:20;;;;;;;9.13;2.80;;;15.60;46.50;;;;;;1045898;28;20028;-77
2021/03/10 01:00:51;;;;;;;6.35;2.83;;;15.40;46.80;;;;;;1046390;28;20004;-77
2021/03/10 01:01:23;;;;;;;9.73;3.30;;;15.40;46.10;;;;;;1043907;28;20447;-76
2021/03/10 01:01:55;;;;;;;6.82;2.83;;;15.40;46.10;;;;;;1040613;28;20017;-77
2021/03/10 01:02:26;;;;;;;8.65;3.25;;;15.30;46.00;;;;;;1041048;28;20095;-77
2021/03/10 01:02:58;;;;;;;11.13;3.33;;;15.30;45.90;;;;;;1044751;28;20485;-77
2021/03/10 01:03:29;;;;;;;11.60;3.30;;;15.20;45.90;;;;;;1045188;28;20040;-77
2021/03/10 01:04:01;;;;;;;8.27;2.90;;;15.20;46.40;;;;;;1045802;28;20210;-77
2021/03/10 01:04:32;;;;;;;8.18;2.85;;;15.20;46.30;;;;;;1040965;28;20021;-76
2021/03/10 01:05:05;;;;;;;9.38;3.00;;;15.20;47.00;;;;;;1042981;28;20526;-77
2021/03/10 01:05:36;;;;;;;8.60;3.38;;;15.10;48.00;;;;;;1041792;28;20079;-77
2021/03/10 01:06:07;;;;;;;6.72;2.70;;;15.00;49.30;;;;;;1040386;28;20048;-78
2021/03/10 01:06:39;;;;;;;8.43;3.25;;;14.90;49.30;;;;;;1036469;28;20018;-77
2021/03/10 01:07:10;;;;;;;11.13;3.38;;;14.90;49.70;;;;;;1039824;28;20010;-77
2021/03/10 01:07:42;;;;;;;9.57;3.42;;;14.90;50.50;;;;;;1040683;28;20072;-78
2021/03/10 01:08:13;;;;;;;9.32;3.10;;;14.80;51.10;;;;;;1036723;28;20072;-78
2021/03/10 01:08:45;;;;;;;10.73;3.28;;;14.70;51.70;;;;;;1040351;28;20076;-78
2021/03/10 01:09:18;;;;;;;10.20;3.55;;;14.70;52.60;;;;;;1040128;28;20010;-77
2021/03/10 01:09:49;;;;;;;8.05;3.25;;;14.50;54.00;;;;;;1041135;28;20049;-78
2021/03/10 01:10:20;;;;;;;7.80;3.33;;;14.30;55.30;;;;;;1044687;28;20075;-77
2021/03/10 01:10:52;;;;;;;9.77;3.40;;;14.20;56.40;;;;;;1045505;28;20013;-79
2021/03/10 01:11:23;;;;;;;12.40;3.65;;;14.00;57.10;;;;;;1047223;28;20013;-77
2021/03/10 01:11:55;;;;;;;10.15;3.53;;;13.80;57.30;;;;;;1048794;28;20012;-78
2021/03/10 01:12:26;;;;;;;8.27;3.15;;;13.70;57.90;;;;;;1045504;28;20013;-77
2021/03/10 01:12:58;;;;;;;7.97;3.30;;;13.70;56.80;;;;;;1053101;28;20004;-77
2021/03/10 01:13:29;;;;;;;7.78;3.38;;;13.70;57.30;;;;;;1048658;28;20074;-77
2021/03/10 01:14:01;;;;;;;8.45;3.25;;;13.60;57.90;;;;;;1043715;28;20404;-79
2021/03/10 01:14:33;;;;;;;12.25;3.40;;;13.50;57.20;;;;;;1040427;28;21537;-78
2021/03/10 01:15:16;;;;;;;10.70;3.10;;;13.40;57.20;;;;;;1041103;28;20021;-78
2021/03/10 01:15:48;;;;;;;7.90;3.20;;;13.40;56.80;;;;;;1050828;28;20032;-79
2021/03/10 01:16:19;;;;;;;8.50;2.95;;;13.30;57.60;;;;;;1045916;28;21421;-78
2021/03/10 01:16:51;;;;;;;8.50;2.90;;;13.20;58.30;;;;;;1040507;28;20052;-78
2021/03/10 01:17:23;;;;;;;8.30;3.30;;;13.00;58.60;;;;;;1043158;28;20107;-78
2021/03/10 01:17:54;;;;;;;8.07;3.40;;;12.90;59.60;;;;;;1040712;28;20022;-78
2021/03/10 01:18:25;;;;;;;8.55;3.13;;;12.70;60.50;;;;;;1045328;28;20033;-79
2021/03/10 01:18:58;;;;;;;8.85;3.13;;;12.70;60.40;;;;;;1044572;28;20020;-79
2021/03/10 01:19:29;;;;;;;7.00;2.88;;;12.60;61.40;;;;;;1044657;28;20019;-78
2021/03/10 01:20:01;;;;;;;9.50;3.10;;;12.50;61.30;;;;;;1044583;28;20092;-79
2021/03/10 01:20:32;;;;;;;10.07;3.40;;;12.40;61.90;;;;;;1041063;28;20119;-78
2021/03/10 01:21:05;;;;;;;7.63;3.20;;;12.30;62.50;;;;;;1042219;28;20470;-79
2021/03/10 01:21:37;;;;;;;8.77;3.22;;;12.20;63.00;;;;;;1040687;28;20025;-78
2021/03/10 01:22:08;;;;;;;6.25;3.10;;;12.10;62.80;;;;;;1040636;28;20021;-78
2021/03/10 01:22:40;;;;;;;9.20;3.40;;;12.10;63.10;;;;;;1040494;28;20459;-77
2021/03/10 01:23:11;;;;;;;8.23;3.40;;;12.00;63.70;;;;;;1040617;28;20025;-78
2021/03/10 01:23:43;;;;;;;9.45;3.28;;;11.90;64.70;;;;;;1041189;28;20017;-77
2021/03/10 01:24:14;;;;;;;8.07;3.10;;;11.80;64.90;;;;;;1045028;28;20017;-78
2021/03/10 01:24:45;;;;;;;7.68;3.53;;;11.80;65.20;;;;;;1047814;28;20035;-78
2021/03/10 01:25:17;;;;;;;7.15;3.50;;;11.80;65.50;;;;;;1051513;28;20024;-78
2021/03/10 01:25:49;;;;;;;7.45;3.15;;;11.70;66.20;;;;;;1052041;28;20573;-79
2021/03/10 01:26:20;;;;;;;11.77;3.58;;;11.70;67.10;;;;;;1044590;28;20052;-78
2021/03/10 01:26:51;;;;;;;7.03;3.30;;;11.60;67.30;;;;;;1040110;28;20044;-78
2021/03/10 01:27:23;;;;;;;7.90;3.03;;;11.60;67.90;;;;;;1042278;28;20033;-78
2021/03/10 01:27:54;;;;;;;6.40;3.03;;;11.50;67.80;;;;;;1039649;28;20112;-78
2021/03/10 01:28:26;;;;;;;7.22;2.80;;;11.50;68.50;;;;;;1036916;28;20110;-78
2021/03/10 01:28:57;;;;;;;10.07;3.30;;;11.50;68.60;;;;;;1041099;28;20024;-78
2021/03/10 01:29:29;;;;;;;8.15;3.45;;;11.50;67.30;;;;;;1045003;28;20021;-78
2021/03/10 01:30:00;;;;;;;8.73;3.25;;;11.50;68.10;;;;;;1044507;28;20048;-79
2021/03/10 01:30:31;;;;;;;7.47;3.20;;;11.50;68.10;;;;;;1036018;28;20060;-79
2021/03/10 01:31:03;;;;;;;6.38;3.10;;;11.40;67.60;;;;;;1036906;28;20018;-79
2021/03/10 01:31:34;;;;;;;8.73;3.10;;;11.40;68.30;;;;;;1036909;28;20030;-79
2021/03/10 01:32:06;;;;;;;8.48;3.30;;;11.40;68.60;;;;;;1041561;28;20029;-79
2021/03/10 01:32:38;;;;;;;7.45;3.20;;;11.40;67.00;;;;;;1046562;28;20083;-79
2021/03/10 01:33:10;;;;;;;10.18;3.50;;;11.30;68.20;;;;;;1044583;28;20402;-78
2021/03/10 01:33:41;;;;;;;6.78;3.20;;;11.30;69.20;;;;;;1044459;28;20131;-78
2021/03/10 01:34:12;;;;;;;6.85;3.30;;;11.30;69.40;;;;;;1044978;28;20116;-78
2021/03/10 01:34:44;;;;;;;8.13;3.38;;;11.20;69.40;;;;;;1045145;28;20005;-79
2021/03/10 01:35:15;;;;;;;7.28;3.42;;;11.20;70.30;;;;;;1044409;28;20032;-78
2021/03/10 01:35:47;;;;;;;8.40;3.38;;;11.20;70.20;;;;;;1037240;28;20408;-78
2021/03/10 01:36:18;;;;;;;10.52;3.75;;;11.20;70.10;;;;;;1043860;28;20017;-78
2021/03/10 01:36:49;;;;;;;9.00;3.53;;;11.20;70.30;;;;;;1041925;28;20059;-78
2021/03/10 01:37:21;;;;;;;9.65;3.67;;;11.20;70.20;;;;;;1041688;28;20060;-78
2021/03/10 01:37:52;;;;;;;8.48;3.67;;;11.20;70.30;;;;;;1046589;28;20096;-76
2021/03/10 01:38:24;;;;;;;8.25;3.45;;;11.20;70.70;;;;;;1044268;28;20009;-78
2021/03/10 01:38:55;;;;;;;7.78;3.40;;;11.20;70.00;;;;;;1045221;28;20427;-78
2021/03/10 01:39:28;;;;;;;6.47;3.40;;;11.20;70.60;;;;;;1050405;28;20069;-77
2021/03/10 01:39:59;;;;;;;8.20;3.50;;;11.10;71.20;;;;;;1048379;28;20082;-77
2021/03/10 01:40:31;;;;;;;8.60;3.20;;;11.10;69.60;;;;;;1043668;28;20021;-78
2021/03/10 01:41:03;;;;;;;7.22;3.28;;;11.10;69.70;;;;;;1046653;28;20012;-77
2021/03/10 01:41:36;;;;;;;10.93;3.40;;;11.10;69.90;;;;;;1045611;28;20062;-77
2021/03/10 01:42:08;;;;;;;8.38;3.50;;;11.10;70.00;;;;;;1047699;28;20095;-77
2021/03/10 01:42:39;;;;;;;9.18;3.42;;;11.10;69.60;;;;;;1046523;28;20096;-77
2021/03/10 01:43:11;;;;;;;6.78;3.10;;;11.10;68.40;;;;;;1046432;28;20017;-76
2021/03/10 01:43:42;;;;;;;12.25;3.22;;;11.10;68.20;;;;;;1048741;28;20008;-76
2021/03/10 01:44:16;;;;;;;9.05;3.30;;;11.10;68.60;;;;;;1048238;28;20474;-76
2021/03/10 01:44:48;;;;;;;7.15;3.28;;;11.10;69.10;;;;;;1045243;28;20039;-76
2021/03/10 01:45:19;;;;;;;7.57;3.03;;;11.10;69.60;;;;;;1047272;28;20004;-77
2021/03/10 01:45:51;;;;;;;8.20;3.10;;;11.10;69.20;;;;;;1048519;28;20017;-78
2021/03/10 01:46:23;;;;;;;9.18;3.47;;;11.00;69.10;;;;;;1045564;28;20066;-76
2021/03/10 01:46:54;;;;;;;8.65;3.30;;;11.00;69.70;;;;;;1047737;28;20107;-75
2021/03/10 01:47:26;;;;;;;8.07;3.15;;;11.00;70.10;;;;;;1043768;28;20071;-77
2021/03/10 01:47:59;;;;;;;9.57;3.45;;;11.00;71.10;;;;;;1038734;28;20116;-76
2021/03/10 01:48:30;;;;;;;10.00;3.30;;;11.00;70.40;;;;;;1036937;28;20014;-77
2021/03/10 01:49:01;;;;;;;7.05;3.10;;;11.00;70.40;;;;;;1040851;28;20104;-76
2021/03/10 01:49:33;;;;;;;7.40;3.28;;;11.00;70.10;;;;;;1035482;28;20018;-77
2021/03/10 01:50:06;;;;;;;7.45;3.28;;;11.00;69.90;;;;;;1041671;28;20024;-78
2021/03/10 01:50:37;;;;;;;8.32;3.42;;;11.00;69.80;;;;;;1040705;28;20048;-76
2021/03/10 01:51:09;;;;;;;7.38;3.20;;;11.00;70.20;;;;;;1038115;28;20022;-77
2021/03/10 01:51:41;;;;;;;6.30;3.22;;;11.00;70.70;;;;;;1046312;28;20017;-77
2021/03/10 01:52:13;;;;;;;8.35;3.35;;;11.00;70.80;;;;;;1046314;28;20020;-78
2021/03/10 01:52:44;;;;;;;11.45;3.58;;;11.00;70.40;;;;;;1044452;28;20017;-75
2021/03/10 01:53:16;;;;;;;10.20;3.58;;;11.00;70.40;;;;;;1042087;28;20014;-76
2021/03/10 01:53:47;;;;;;;7.03;3.50;;;11.00;70.40;;;;;;1044466;28;20009;-78
2021/03/10 01:54:19;;;;;;;10.00;3.50;;;11.00;70.90;;;;;;1047709;28;20107;-76
2021/03/10 01:54:52;;;;;;;10.25;3.30;;;11.00;71.00;;;;;;1049859;28;20036;-76
2021/03/10 01:55:24;;;;;;;10.18;3.50;;;11.00;70.90;;;;;;1050752;28;20051;-75
2021/03/10 01:55:57;;;;;;;9.82;3.47;;;11.00;71.30;;;;;;1045569;28;20017;-75
2021/03/10 01:56:29;;;;;;;9.35;3.55;;;11.00;70.50;;;;;;1045031;28;20060;-77
2021/03/10 01:57:02;;;;;;;8.15;3.13;;;11.10;70.00;;;;;;1044641;28;20017;-75
2021/03/10 01:57:34;;;;;;;7.25;2.90;;;11.00;69.60;;;;;;1042124;28;20021;-76
2021/03/10 01:58:06;;;;;;;6.80;3.08;;;11.00;69.80;;;;;;1044061;28;20020;-76
2021/03/10 01:58:38;;;;;;;9.82;3.15;;;11.10;69.90;;;;;;1046127;28;20024;-75
2021/03/10 01:59:10;;;;;;;10.48;3.58;;;11.10;70.40;;;;;;1046268;28;20088;-76
2021/03/10 01:59:41;;;;;;;8.20;3.10;;;11.10;69.90;;;;;;1048001;28;20450;-75
2021/03/10 02:00:14;;;;;;;8.27;3.50;;;11.10;70.10;;;;;;1048892;28;20016;-75
2021/03/10 02:00:45;;;;;;;9.60;3.25;;;11.00;70.60;;;;;;1050208;28;20397;-75
2021/03/10 02:01:17;;;;;;;9.70;3.55;;;11.00;70.80;;;;;;1051362;28;20066;-75
2021/03/10 02:01:48;;;;;;;9.20;3.13;;;11.00;71.00;;;;;;1050616;28;20020;-75
2021/03/10 02:02:20;;;;;;;8.35;3.28;;;10.90;71.10;;;;;;1046440;28;20017;-75
2021/03/10 02:02:51;;;;;;;10.65;3.63;;;10.90;71.60;;;;;;1044609;28;20067;-75
2021/03/10 02:03:23;;;;;;;9.13;3.55;;;10.80;72.00;;;;;;1044251;28;20029;-75
2021/03/10 02:03:55;;;;;;;9.18;3.55;;;10.80;73.10;;;;;;1042912;28;20127;-75
2021/03/10 02:04:26;;;;;;;8.23;3.50;;;10.80;73.30;;;;;;1042073;28;20022;-75
2021/03/10 02:04:58;;;;;;;9.82;3.60;;;10.70;73.60;;;;;;1041711;28;20016;-75
2021/03/10 02:05:30;;;;;;;9.93;3.50;;;10.70;73.70;;;;;;1041431;28;20028;-75
2021/03/10 02:06:01;;;;;;;9.23;3.30;;;10.70;74.20;;;;;;1041425;28;21674;-75
2021/03/10 02:07:06;;;;;;;13.07;3.40;;;10.60;74.10;;;;;;1046691;28;20094;-74
2021/03/10 02:07:52;;;;;;;10.43;3.25;;;10.60;73.90;;;;;;1046477;28;20020;-74
2021/03/10 02:08:46;;;;;;;11.93;3.78;;;10.70;73.80;;;;;;1048374;28;20013;-75
2021/03/10 02:09:46;;;;;;;10.10;3.40;;;10.60;74.90;;;;;;1047415;28;20021;-73
2021/03/10 02:10:36;;;;;;;11.45;3.28;;;10.50;75.10;;;;;;1031208;28;20471;-73
2021/03/10 02:11:46;;;;;;;9.60;3.53;;;10.40;75.50;;;;;;1042675;28;20038;-72
2021/03/10 02:12:44;;;;;;;10.60;3.50;;;10.30;75.90;;;;;;1050409;28;20046;-72
2021/03/10 02:13:30;;;;;;;10.20;3.47;;;10.30;75.70;;;;;;1046125;28;20502;-72
2021/03/10 02:14:07;;;;;;;9.73;3.15;;;10.30;75.80;;;;;;1044920;28;20039;-72
2021/03/10 02:14:52;;;;;;;9.90;3.30;;;10.20;76.40;;;;;;1045890;28;20082;-72
2021/03/10 02:15:33;;;;;;;13.13;3.75;;;10.20;77.50;;;;;;1045491;28;20032;-72
2021/03/10 02:16:33;;;;;;;10.38;3.95;;;10.20;77.80;;;;;;1045220;28;20107;-73
2021/03/10 02:17:10;;;;;;;9.68;3.90;;;10.10;78.00;;;;;;1045435;28;20105;-73
2021/03/10 02:17:47;;;;;;;10.02;3.60;;;10.10;78.20;;;;;;1042223;28;20439;-73
2021/03/10 02:18:41;;;;;;;15.35;4.28;;;10.10;78.30;;;;;;1046771;28;20012;-72
2021/03/10 02:19:18;;;;;;;11.77;3.63;;;10.10;78.10;;;;;;1046382;28;20013;-73
2021/03/10 02:19:55;;;;;;;9.88;3.33;;;10.00;78.20;;;;;;1040266;28;20044;-73
2021/03/10 02:20:44;;;;;;;11.38;3.72;;;10.00;78.30;;;;;;1045062;28;20040;-72
2021/03/10 02:21:41;;;;;;;10.80;3.65;;;10.00;78.30;;;;;;1049397;28;20071;-72
2021/03/10 02:22:46;;;;;;;9.00;3.22;;;10.00;78.10;;;;;;1048716;28;20028;-72
2021/03/10 02:23:41;;;;;;;11.82;3.47;;;9.90;78.50;;;;;;1045786;28;20086;-73
2021/03/10 02:24:31;;;;;;;9.68;3.30;;;9.90;79.20;;;;;;1050408;28;20444;-72
2021/03/10 02:25:19;;;;;;;12.63;3.60;;;9.90;78.70;;;;;;1045975;28;20009;-73
2021/03/10 02:26:37;;;;;;;11.95;3.60;;;9.90;78.80;;;;;;1041643;28;20082;-73
2021/03/10 02:27:47;;;;;;;11.05;3.53;;;9.90;78.90;;;;;;1033021;28;20038;-72
2021/03/10 02:28:20;;;;;;;8.65;3.60;;;9.90;79.40;;;;;;1039848;28;20064;-73
2021/03/10 02:28:53;;;;;;;10.10;3.70;;;9.80;79.70;;;;;;1040150;28;20553;-73
2021/03/10 02:29:26;;;;;;;9.88;3.63;;;9.80;79.90;;;;;;1038072;28;20414;-74
2021/03/10 02:30:10;;;;;;;7.28;3.00;;;9.80;79.20;;;;;;1034751;28;20018;-75
2021/03/10 02:30:45;;;;;;;8.73;3.10;;;9.80;78.50;;;;;;1034715;28;20018;-76
2021/03/10 02:31:17;;;;;;;11.52;3.38;;;9.90;78.00;;;;;;1033070;28;20054;-75
2021/03/10 02:31:50;;;;;;;10.00;3.20;;;9.80;78.10;;;;;;1033502;28;20088;-76
2021/03/10 02:32:21;;;;;;;9.68;3.30;;;9.80;78.30;;;;;;1034227;28;20021;-77
2021/03/10 02:33:23;;;;;;;9.98;3.70;;;9.80;78.70;;;;;;1032028;28;20313;-76
2021/03/10 02:33:56;;;;;;;9.02;3.10;;;9.80;78.50;;;;;;1039373;28;20468;-76
2021/03/10 02:34:28;;;;;;;9.15;3.22;;;9.80;78.50;;;;;;1045730;28;20147;-73
2021/03/10 02:35:02;;;;;;;8.25;3.40;;;9.80;78.70;;;;;;1046861;28;20087;-74
2021/03/10 02:35:34;;;;;;;7.85;3.25;;;9.70;79.00;;;;;;1042679;28;20033;-74
2021/03/10 02:36:13;;;;;;;10.15;3.50;;;9.70;79.20;;;;;;1044865;28;20021;-74
2021/03/10 02:36:49;;;;;;;9.07;3.22;;;9.70;79.50;;;;;;1046147;28;20029;-74
2021/03/10 02:37:21;;;;;;;7.32;3.30;;;9.70;79.60;;;;;;1042388;28;20033;-74
2021/03/10 02:37:59;;;;;;;7.88;3.28;;;9.70;79.90;;;;;;1044991;28;20021;-75
2021/03/10 02:38:30;;;;;;;9.25;3.22;;;9.80;79.40;;;;;;1042053;28;20083;-74
2021/03/10 02:39:54;;;;;;;8.43;3.30;;;9.80;79.70;;;;;;1043541;28;20032;-74
2021/03/10 02:40:27;;;;;;;8.05;3.17;;;9.80;79.60;;;;;;1049309;28;20073;-74
2021/03/10 02:41:00;;;;;;;10.07;3.78;;;9.70;79.70;;;;;;1045437;28;20032;-75
2021/03/10 02:41:33;;;;;;;7.82;3.33;;;9.70;79.70;;;;;;1041490;28;20029;-75
2021/03/10 02:42:05;;;;;;;10.55;3.63;;;9.70;79.90;;;;;;1043741;28;20100;-74
2021/03/10 02:42:38;;;;;;;9.38;3.60;;;9.70;80.50;;;;;;1043324;28;20104;-74
2021/03/10 02:43:10;;;;;;;8.45;3.40;;;9.70;80.70;;;;;;1049206;28;20032;-74
2021/03/10 02:43:45;;;;;;;8.77;3.60;;;9.70;80.90;;;;;;1050259;28;20020;-74
2021/03/10 02:44:18;;;;;;;8.38;3.20;;;9.70;80.80;;;;;;1051418;28;20112;-74
2021/03/10 02:44:50;;;;;;;9.82;3.47;;;9.70;81.00;;;;;;1050655;28;20438;-74
2021/03/10 02:45:23;;;;;;;11.75;3.60;;;9.70;81.10;;;;;;1046152;28;20028;-74
2021/03/10 02:45:55;;;;;;;10.23;3.47;;;9.70;80.80;;;;;;1042198;28;20029;-75
2021/03/10 02:46:28;;;;;;;8.45;3.45;;;9.70;80.70;;;;;;1042682;28;20438;-74
2021/03/10 02:46:59;;;;;;;9.80;3.80;;;9.70;80.80;;;;;;1041538;28;20065;-74
2021/03/10 02:47:32;;;;;;;10.20;3.67;;;9.70;81.00;;;;;;1042229;28;20029;-74
2021/03/10 02:48:05;;;;;;;7.55;3.20;;;9.70;80.90;;;;;;1046398;28;20017;-74
2021/03/10 02:48:37;;;;;;;8.80;3.63;;;9.70;81.10;;;;;;1041426;28;20022;-72
2021/03/10 02:49:10;;;;;;;11.07;3.72;;;9.70;81.10;;;;;;1043070;28;20056;-73
2021/03/10 02:49:42;;;;;;;10.65;3.35;;;9.70;81.30;;;;;;1039890;28;20481;-75
2021/03/10 02:50:14;;;;;;;10.10;3.88;;;9.70;81.20;;;;;;1039487;28;20071;-74
2021/03/10 02:50:47;;;;;;;9.52;3.47;;;9.70;81.10;;;;;;1042686;28;20103;-75
2021/03/10 02:51:20;;;;;;;10.18;3.30;;;9.70;81.20;;;;;;1042997;28;20025;-76
2021/03/10 02:51:55;;;;;;;11.18;3.83;;;9.70;81.00;;;;;;1039980;28;20096;-75
2021/03/10 02:52:28;;;;;;;11.13;5.68;;;9.70;80.90;;;;;;1044104;28;20088;-75
2021/03/10 02:53:03;;;;;;;13.18;7.30;;;9.80;80.90;;;;;;1044356;28;20354;-74
2021/03/10 02:53:41;;;;;;;19.48;10.98;;;9.70;80.90;;;;;;1045544;28;20021;-74
2021/03/10 02:54:15;;;;;;;13.43;6.65;;;9.80;80.70;;;;;;1047087;28;20090;-74
2021/03/10 02:54:47;;;;;;;12.55;6.10;;;9.80;80.20;;;;;;1044337;28;20021;-74
2021/03/10 02:55:19;;;;;;;10.57;5.70;;;9.80;80.40;;;;;;1043923;28;20092;-74
2021/03/10 02:55:51;;;;;;;11.82;5.30;;;9.80;80.40;;;;;;1043092;28;20017;-75